This is the latest recevied weather packets stored in our database for station/object KB3CAT. If no packets are shown the sender has not sent any weather packets the latest 10 day(s).
| Time | Temp. | Humidity | Pressure | Rain* | Wind** | Luminosity | Snow |
|---|---|---|---|---|---|---|---|
| 1778152895 | 10° C | 50% | 1012 hPa | 0 mm | - | - | - |
| 1778145675 | 10° C | 59% | 1011 hPa | 0 mm | - | - | - |
| 1778145075 | 10° C | 59% | 1010.8 hPa | 0 mm | - | - | - |
| 1778141476 | 10.56° C | 61% | 1010.7 hPa | 0 mm | - | - | - |
| 1778132496 | 11.67° C | 77% | 1010.5 hPa | 0 mm | - | - | - |
| 1778130076 | 11.67° C | 82% | 1010.7 hPa | 0.51 mm | - | - | - |
| 1778127676 | 12.22° C | 78% | 1010.6 hPa | 0.51 mm | - | - | - |
| 1778127076 | 12.78° C | 75% | 1010.6 hPa | 0.51 mm | - | - | - |
| 1778123475 | 13.33° C | 73% | 1010.6 hPa | 0 mm | - | - | - |
| 1778121076 | 13.89° C | 74% | 1010.1 hPa | 0 mm | - | - | - |
| 1778112076 | 16.67° C | 73% | 1008.8 hPa | 0 mm | - | - | - |
| 1778102476 | 19.44° C | 77% | 1006.6 hPa | 0 mm | - | - | - |
| 1778101876 | 19.44° C | 78% | 1006.5 hPa | 0 mm | - | - | - |
| 1778100076 | 20° C | 77% | 1006.3 hPa | 0 mm | - | - | - |
| 1778098876 | 20° C | 76% | 1006.3 hPa | 0 mm | - | - | - |
| 1778095296 | 18.89° C | 81% | 1006.5 hPa | 0 mm | - | - | - |
| 1778082676 | 17.22° C | 88% | 1006.4 hPa | 0 mm | - | - | - |
| 1778080276 | 16.11° C | 89% | 1006.1 hPa | 2.54 mm | - | - | - |
| 1778076676 | 15.56° C | 88% | 1007.4 hPa | 2.29 mm | - | - | - |
| 1778071876 | 16.11° C | 85% | 1007 hPa | 0.25 mm | - | - | - |
| 1778071276 | 16.11° C | 84% | 1007.1 hPa | 0.51 mm | - | - | - |
| 1778063476 | 18.89° C | 64% | 1006.3 hPa | 0 mm | - | - | - |
| 1778059896 | 18.89° C | 61% | 1005.8 hPa | 0 mm | - | - | - |
| 1778056276 | 19.44° C | 59% | 1006.7 hPa | 0 mm | - | - | - |
| 1778055076 | 19.44° C | 59% | 1006.6 hPa | 0 mm | - | - | - |
* Rain latest hour (hover to see other rain measurements)
** Current wind speed in m/s (hover to see current wind gust speed)